createdAt,value
2018-12-08T00:01:51.736Z,48.10
2018-12-08T00:04:20.507Z,47.80
2018-12-08T00:06:49.321Z,47.40
2018-12-08T00:09:18.239Z,47.07
2018-12-08T00:11:48.488Z,47.50
2018-12-08T00:14:18.153Z,47.10
2018-12-08T00:16:47.214Z,47.07
2018-12-08T00:19:16.325Z,49.33
2018-12-08T00:21:45.642Z,47.37
2018-12-08T00:24:14.396Z,50.93
2018-12-08T00:26:44.214Z,49.37
2018-12-08T00:29:12.918Z,48.60
2018-12-08T00:31:47.227Z,49.07
2018-12-08T00:34:16.078Z,46.70
2018-12-08T00:36:46.069Z,48.80
2018-12-08T00:39:14.806Z,48.63
2018-12-08T00:41:43.463Z,47.53
2018-12-08T00:44:12.992Z,47.63
2018-12-08T00:46:41.751Z,45.83
2018-12-08T00:49:10.509Z,44.80
2018-12-08T00:52:42.584Z,46.93
2018-12-08T00:55:11.468Z,42.73
2018-12-08T00:57:40.434Z,44.63
2018-12-08T01:00:09.569Z,46.50
2018-12-08T01:02:38.474Z,46.97
2018-12-08T01:05:07.306Z,47.40
2018-12-08T01:07:36.051Z,48.33
2018-12-08T01:10:05.279Z,48.20
2018-12-08T01:12:34.074Z,49.23
2018-12-08T01:15:03.010Z,47.50
2018-12-08T01:17:32.015Z,47.77
2018-12-08T01:20:00.867Z,49.10
2018-12-08T01:22:29.639Z,48.60
2018-12-08T01:24:58.416Z,49.33
2018-12-08T01:27:27.059Z,49.13
2018-12-08T01:29:55.837Z,46.97
2018-12-08T01:32:25.495Z,48.67
2018-12-08T01:34:54.163Z,45.37
2018-12-08T01:37:23.236Z,48.27
2018-12-08T01:39:52.030Z,45.70
2018-12-08T01:42:21.747Z,46.07
2018-12-08T01:44:51.037Z,46.67
2018-12-08T01:47:20.700Z,48.20
2018-12-08T01:49:49.773Z,47.53
2018-12-08T01:52:19.393Z,47.93
2018-12-08T01:54:48.209Z,45.50
2018-12-08T01:57:17.055Z,49.27
2018-12-08T01:59:45.856Z,45.07
2018-12-08T02:02:14.361Z,47.53
2018-12-08T02:04:42.949Z,50.83
2018-12-08T02:07:11.535Z,47.23
2018-12-08T02:09:40.075Z,48.13
2018-12-08T02:12:08.607Z,47.50
2018-12-08T02:14:37.253Z,50.33
2018-12-08T02:17:06.058Z,47.77
2018-12-08T02:19:34.767Z,50.17
2018-12-08T02:22:04.073Z,50.07
2018-12-08T02:24:32.762Z,50.57
2018-12-08T02:27:01.503Z,49.27
2018-12-08T02:29:30.232Z,50.77
2018-12-08T02:31:58.846Z,52.23
2018-12-08T02:34:27.567Z,50.00
2018-12-08T02:36:56.159Z,52.47
2018-12-08T02:39:24.733Z,48.40
2018-12-08T02:41:53.357Z,51.13
2018-12-08T02:44:22.917Z,50.83
2018-12-08T02:46:51.551Z,51.00
2018-12-08T02:49:20.652Z,51.20
2018-12-08T02:51:52.028Z,54.77
2018-12-08T02:54:20.650Z,53.83
2018-12-08T02:56:49.745Z,52.50
2018-12-08T02:59:18.339Z,52.63
2018-12-08T03:01:47.187Z,53.67
2018-12-08T03:04:16.885Z,53.20
2018-12-08T03:06:45.450Z,52.93
2018-12-08T03:09:14.057Z,56.77
2018-12-08T03:11:42.743Z,56.93
2018-12-08T03:14:11.429Z,58.67
2018-12-08T03:16:40.741Z,52.47
2018-12-08T03:19:09.389Z,54.97
2018-12-08T03:21:38.009Z,60.10
2018-12-08T03:24:06.754Z,57.23
2018-12-08T03:26:35.791Z,54.20
2018-12-08T03:29:04.537Z,56.30
2018-12-08T03:31:33.154Z,53.10
2018-12-08T03:34:01.749Z,53.87
2018-12-08T03:36:30.338Z,55.67
2018-12-08T03:38:59.059Z,51.10
2018-12-08T03:41:27.862Z,50.80
2018-12-08T03:43:56.563Z,49.37
2018-12-08T03:46:25.255Z,48.33
2018-12-08T03:48:53.979Z,49.50
2018-12-08T03:51:22.683Z,48.77
2018-12-08T03:53:51.390Z,45.00
2018-12-08T03:56:20.076Z,46.47
2018-12-08T03:58:48.757Z,45.07
2018-12-08T04:01:17.440Z,44.13
2018-12-08T04:03:46.107Z,44.10
2018-12-08T04:06:14.873Z,44.17
2018-12-08T04:08:43.557Z,45.93
2018-12-08T04:11:12.050Z,45.60
2018-12-08T04:13:40.590Z,47.90
2018-12-08T04:16:09.168Z,47.73
2018-12-08T04:18:37.854Z,46.57
2018-12-08T04:21:06.543Z,50.07
2018-12-08T04:23:35.162Z,45.03
2018-12-08T04:26:03.682Z,46.90
2018-12-08T04:28:32.229Z,43.93
2018-12-08T04:31:00.780Z,42.17
2018-12-08T04:33:30.089Z,43.57
2018-12-08T04:35:58.618Z,43.90
2018-12-08T04:38:27.387Z,42.93
2018-12-08T04:40:56.275Z,43.30
2018-12-08T04:43:24.782Z,43.67
2018-12-08T04:45:54.037Z,47.43
2018-12-08T04:48:23.174Z,45.63
2018-12-08T04:50:52.526Z,50.83
2018-12-08T04:53:21.197Z,46.13
2018-12-08T04:55:49.771Z,47.27
2018-12-08T04:58:19.003Z,47.57
2018-12-08T05:00:48.123Z,48.80
2018-12-08T05:03:16.667Z,48.77
2018-12-08T05:05:45.346Z,57.33
2018-12-08T05:08:14.044Z,59.80
2018-12-08T05:10:42.669Z,58.13
2018-12-08T05:13:11.234Z,53.97
2018-12-08T05:15:39.772Z,55.63
2018-12-08T05:18:08.422Z,56.93
2018-12-08T05:20:37.142Z,55.73
2018-12-08T05:23:05.641Z,55.83
2018-12-08T05:25:34.163Z,45.23
2018-12-08T05:28:02.884Z,39.67
2018-12-08T05:30:31.538Z,38.47
2018-12-08T05:33:00.235Z,36.73
2018-12-08T05:35:28.925Z,28.37
2018-12-08T05:37:57.572Z,23.00
2018-12-08T05:40:26.164Z,21.97
2018-12-08T05:42:54.802Z,17.97
2018-12-08T05:45:23.348Z,16.03
2018-12-08T05:47:51.991Z,13.97
2018-12-08T05:50:20.631Z,13.40
2018-12-08T05:52:49.209Z,12.53
2018-12-08T05:55:17.778Z,11.13
2018-12-08T05:57:46.339Z,9.50
2018-12-08T06:00:15.024Z,6.77
2018-12-08T06:02:43.525Z,5.80
2018-12-08T06:05:12.049Z,5.17
2018-12-08T06:07:40.653Z,5.33
2018-12-08T06:10:09.167Z,6.97
2018-12-08T06:12:37.669Z,3.27
2018-12-08T06:15:06.586Z,2.70
2018-12-08T06:17:35.246Z,2.07
2018-12-08T06:20:04.250Z,2.40
2018-12-08T06:22:32.989Z,2.47
2018-12-08T06:25:01.433Z,2.53
2018-12-08T06:27:41.737Z,2.17
2018-12-08T06:30:10.308Z,2.00
2018-12-08T06:32:38.985Z,1.30
2018-12-08T06:35:07.635Z,1.30
2018-12-08T06:37:36.290Z,1.50
2018-12-08T06:40:06.334Z,2.70
2018-12-08T06:42:35.112Z,3.13
2018-12-08T06:45:03.827Z,2.63
2018-12-08T06:47:32.473Z,0.90
2018-12-08T06:50:00.984Z,0.70
2018-12-08T06:52:29.542Z,1.17
2018-12-08T06:54:58.952Z,0.80
2018-12-08T06:57:58.160Z,0.83
2018-12-08T07:00:26.865Z,0.70
2018-12-08T07:02:55.441Z,0.80
2018-12-08T07:05:24.106Z,0.87
2018-12-08T07:07:52.793Z,1.20
2018-12-08T07:10:21.479Z,1.30
2018-12-08T07:15:49.094Z,2.80
2018-12-08T07:18:17.852Z,2.10
2018-12-08T07:20:46.722Z,1.70
2018-12-08T07:23:15.602Z,2.33
2018-12-08T07:25:44.209Z,1.50
2018-12-08T07:28:12.822Z,2.70
2018-12-08T07:30:41.398Z,1.83
2018-12-08T07:33:10.027Z,1.47
2018-12-08T07:35:38.698Z,0.90
2018-12-08T07:38:07.217Z,1.67
2018-12-08T07:40:36.005Z,2.00
2018-12-08T07:43:04.644Z,2.70
2018-12-08T07:45:33.258Z,3.20
2018-12-08T07:48:02.030Z,3.63
2018-12-08T07:50:30.673Z,4.30
2018-12-08T07:52:59.295Z,4.90
2018-12-08T07:55:28.205Z,5.67
2018-12-08T07:57:56.776Z,8.30
2018-12-08T08:00:25.549Z,10.33
2018-12-08T08:02:54.229Z,11.57
2018-12-08T08:05:22.780Z,11.57
2018-12-08T08:07:51.328Z,11.17
2018-12-08T08:10:20.100Z,11.90
2018-12-08T08:12:48.596Z,13.87
2018-12-08T08:15:17.476Z,14.10
2018-12-08T08:17:46.153Z,13.77
2018-12-08T08:20:14.759Z,13.67
2018-12-08T08:22:43.374Z,14.90
2018-12-08T08:25:12.351Z,15.10
2018-12-08T08:27:40.894Z,17.07
2018-12-08T08:30:11.316Z,16.03
2018-12-08T08:32:39.837Z,15.50
2018-12-08T08:35:08.861Z,17.40
2018-12-08T08:37:37.692Z,17.10
2018-12-08T08:40:08.630Z,17.00
2018-12-08T08:42:37.123Z,16.37
2018-12-08T08:45:06.426Z,16.57
2018-12-08T08:47:35.265Z,16.43
2018-12-08T08:50:05.151Z,16.23
2018-12-08T08:52:34.744Z,15.47
2018-12-08T08:55:03.417Z,16.37
2018-12-08T08:57:32.120Z,14.53
2018-12-08T09:00:00.676Z,15.27
2018-12-08T09:02:29.210Z,15.13
2018-12-08T09:04:57.908Z,16.13
2018-12-08T09:07:26.460Z,17.67
2018-12-08T09:09:55.544Z,17.93
2018-12-08T09:12:24.540Z,20.13
2018-12-08T09:14:53.432Z,20.87
2018-12-08T09:17:22.790Z,21.83
2018-12-08T09:19:51.415Z,23.10
2018-12-08T09:22:20.036Z,23.53
2018-12-08T09:24:48.515Z,24.57
2018-12-08T09:27:17.165Z,24.03
2018-12-08T09:29:45.792Z,25.30
2018-12-08T09:32:15.113Z,26.57
2018-12-08T09:34:43.809Z,26.13
2018-12-08T09:37:12.432Z,24.50
2018-12-08T09:39:41.079Z,26.00
2018-12-08T09:42:09.633Z,26.67
2018-12-08T09:44:38.184Z,26.37
2018-12-08T09:47:06.802Z,26.27
2018-12-08T09:49:35.444Z,29.70
2018-12-08T09:52:04.001Z,27.97
2018-12-08T09:54:32.673Z,28.67
2018-12-08T09:57:01.189Z,29.57
2018-12-08T09:59:29.733Z,29.83
2018-12-08T10:01:58.422Z,29.37
2018-12-08T10:04:26.981Z,28.47
2018-12-08T10:06:55.524Z,27.50
2018-12-08T10:09:24.033Z,27.53
2018-12-08T10:11:52.631Z,29.07
2018-12-08T10:14:21.341Z,29.40
2018-12-08T10:16:49.923Z,29.17
2018-12-08T10:19:18.460Z,26.47
2018-12-08T10:21:47.152Z,26.83
2018-12-08T10:24:15.886Z,27.60
2018-12-08T10:26:44.532Z,26.90
2018-12-08T10:29:13.126Z,26.07
2018-12-08T10:31:41.901Z,25.17
2018-12-08T10:34:10.441Z,24.73
2018-12-08T10:36:39.070Z,23.13
2018-12-08T10:39:08.855Z,21.67
2018-12-08T10:41:37.448Z,22.10
2018-12-08T10:44:06.033Z,21.20
2018-12-08T10:46:34.767Z,21.60
2018-12-08T10:49:03.530Z,20.33
2018-12-08T10:51:32.310Z,19.50
2018-12-08T10:54:00.874Z,19.23
2018-12-08T10:56:29.637Z,18.60
2018-12-08T10:58:58.839Z,18.93
2018-12-08T11:01:32.877Z,19.27
2018-12-08T11:04:01.612Z,17.40
2018-12-08T11:06:30.371Z,17.53
2018-12-08T11:08:59.034Z,17.73
2018-12-08T11:11:27.814Z,14.43
2018-12-08T11:13:56.356Z,15.47
2018-12-08T11:16:24.919Z,13.17
2018-12-08T11:18:53.579Z,12.03
2018-12-08T11:21:22.119Z,10.07
2018-12-08T11:23:50.789Z,9.90
2018-12-08T11:26:19.304Z,6.00
2018-12-08T11:28:47.963Z,8.57
2018-12-08T11:31:16.699Z,9.87
2018-12-08T11:33:45.233Z,10.43
2018-12-08T11:36:13.989Z,13.30
2018-12-08T11:38:42.473Z,12.13
2018-12-08T11:41:11.081Z,10.63
2018-12-08T11:43:39.892Z,7.00
2018-12-08T11:46:08.387Z,5.73
2018-12-08T11:48:36.946Z,5.63
2018-12-08T11:51:06.058Z,7.20
2018-12-08T11:53:34.618Z,6.23
2018-12-08T11:56:03.226Z,5.47
2018-12-08T11:58:31.825Z,6.97
2018-12-08T12:01:00.467Z,6.33
2018-12-08T12:03:28.978Z,5.30
2018-12-08T12:05:57.629Z,6.00
2018-12-08T12:08:26.154Z,5.67
2018-12-08T12:10:54.642Z,5.33
2018-12-08T12:13:23.397Z,5.60
2018-12-08T12:15:52.071Z,5.60
2018-12-08T12:18:20.537Z,5.90
2018-12-08T12:20:49.174Z,5.93
2018-12-08T12:23:17.792Z,7.37
2018-12-08T12:25:46.841Z,6.87
2018-12-08T12:28:15.411Z,6.73
2018-12-08T12:30:44.051Z,6.37
2018-12-08T12:33:12.677Z,6.43
2018-12-08T12:35:41.319Z,5.93
2018-12-08T12:38:10.079Z,6.30
2018-12-08T12:40:38.647Z,6.50
2018-12-08T12:43:07.176Z,6.37
2018-12-08T12:45:35.725Z,6.60
2018-12-08T12:48:04.450Z,6.73
2018-12-08T12:50:33.670Z,9.67
2018-12-08T12:53:02.245Z,14.83
2018-12-08T12:55:30.916Z,7.10
2018-12-08T12:57:59.715Z,7.03
2018-12-08T13:00:28.798Z,7.30
2018-12-08T13:02:57.734Z,7.33
2018-12-08T13:05:26.426Z,6.97
2018-12-08T13:07:55.072Z,6.00
2018-12-08T13:10:23.972Z,6.53
2018-12-08T13:12:52.600Z,6.67
2018-12-08T13:15:21.332Z,6.70
2018-12-08T13:17:49.868Z,6.83
2018-12-08T13:20:19.108Z,6.63
2018-12-08T13:22:47.761Z,6.50
2018-12-08T13:25:22.361Z,7.40
2018-12-08T13:27:51.074Z,7.37
2018-12-08T13:30:19.897Z,9.00
2018-12-08T13:32:48.528Z,9.57
2018-12-08T13:35:28.562Z,9.80
2018-12-08T13:37:57.439Z,9.70
2018-12-08T13:40:26.316Z,8.73
2018-12-08T13:42:55.482Z,7.50
2018-12-08T13:45:24.022Z,8.57
2018-12-08T13:47:52.765Z,9.27
2018-12-08T13:50:21.799Z,8.20
2018-12-08T13:52:50.327Z,9.67
2018-12-08T13:55:18.845Z,9.83
2018-12-08T13:57:47.461Z,10.70
2018-12-08T14:00:16.205Z,10.53
2018-12-08T14:02:45.239Z,9.83
2018-12-08T14:05:13.918Z,7.03
2018-12-08T14:07:42.543Z,5.30
2018-12-08T14:10:11.394Z,5.17
2018-12-08T14:12:39.913Z,4.63
2018-12-08T14:15:08.635Z,3.53
2018-12-08T14:17:37.218Z,4.40
2018-12-08T14:20:36.990Z,3.27
2018-12-08T14:23:05.668Z,3.17
2018-12-08T14:25:34.278Z,4.60
2018-12-08T14:28:02.996Z,4.57
2018-12-08T14:30:31.558Z,4.90
2018-12-08T14:33:00.163Z,4.83
2018-12-08T14:35:28.671Z,4.83
2018-12-08T14:37:57.214Z,4.90
2018-12-08T14:40:25.803Z,5.53
2018-12-08T14:42:54.524Z,4.30
2018-12-08T14:45:23.101Z,4.30
2018-12-08T14:47:51.800Z,4.17
2018-12-08T14:50:20.454Z,4.20
2018-12-08T14:52:48.983Z,4.17
2018-12-08T14:55:17.521Z,4.40
2018-12-08T14:57:46.258Z,4.77
2018-12-08T15:00:15.268Z,4.40
2018-12-08T15:02:44.146Z,4.33
2018-12-08T15:05:13.936Z,7.60
2018-12-08T15:07:42.800Z,6.03
2018-12-08T15:10:12.741Z,6.23
2018-12-08T15:12:41.849Z,5.10
2018-12-08T15:15:11.205Z,5.43
2018-12-08T15:17:40.539Z,5.73
2018-12-08T15:20:10.068Z,6.87
2018-12-08T15:22:38.982Z,5.77
2018-12-08T15:25:09.307Z,6.70
2018-12-08T15:27:38.179Z,6.20
2018-12-08T15:30:08.443Z,9.13
2018-12-08T15:32:36.991Z,8.07
2018-12-08T15:35:08.115Z,9.87
2018-12-08T15:37:36.668Z,9.33
2018-12-08T15:40:06.319Z,8.07
2018-12-08T15:42:34.788Z,6.83
2018-12-08T15:45:03.706Z,6.93
2018-12-08T15:47:32.224Z,7.50
2018-12-08T15:50:00.993Z,7.67
2018-12-08T15:52:29.614Z,7.50
2018-12-08T15:54:58.334Z,7.37
2018-12-08T15:57:27.433Z,8.17
2018-12-08T15:59:55.931Z,9.13
2018-12-08T16:02:24.633Z,10.47
2018-12-08T16:04:53.526Z,11.00
2018-12-08T16:07:22.205Z,10.73
2018-12-08T16:09:50.845Z,9.17
2018-12-08T16:12:20.302Z,9.30
2018-12-08T16:14:49.001Z,9.00
2018-12-08T16:17:18.060Z,8.60
2018-12-08T16:19:46.970Z,8.77
2018-12-08T16:22:15.593Z,9.20
2018-12-08T16:24:44.096Z,9.80
2018-12-08T16:27:12.677Z,9.93
2018-12-08T16:29:41.330Z,15.17
2018-12-08T16:32:10.045Z,24.00
2018-12-08T16:34:38.744Z,16.67
2018-12-08T16:37:07.222Z,18.27
2018-12-08T16:39:35.992Z,16.40
2018-12-08T16:42:04.594Z,17.03
2018-12-08T16:44:33.185Z,13.70
2018-12-08T16:47:01.916Z,14.33
2018-12-08T16:49:30.665Z,13.33
2018-12-08T16:51:59.422Z,12.03
2018-12-08T16:54:28.213Z,12.27
2018-12-08T16:56:56.872Z,11.53
2018-12-08T16:59:25.438Z,10.57
2018-12-08T17:01:54.875Z,10.83
2018-12-08T17:04:23.585Z,12.30
2018-12-08T17:06:52.147Z,11.17
2018-12-08T17:09:20.797Z,10.50
2018-12-08T17:11:49.366Z,10.63
2018-12-08T17:14:17.858Z,11.17
2018-12-08T17:16:47.248Z,12.10
2018-12-08T17:19:15.775Z,13.40
2018-12-08T17:21:44.312Z,11.87
2018-12-08T17:24:13.040Z,19.57
2018-12-08T17:26:41.512Z,19.17
2018-12-08T17:29:10.204Z,22.13
2018-12-08T17:31:38.844Z,13.43
2018-12-08T17:34:07.439Z,13.70
2018-12-08T17:36:36.090Z,14.13
2018-12-08T17:39:06.488Z,18.00
2018-12-08T17:41:35.077Z,16.87
2018-12-08T17:44:03.766Z,14.93
2018-12-08T17:46:32.497Z,15.50
2018-12-08T17:49:01.157Z,16.63
2018-12-08T17:51:29.636Z,16.03
2018-12-08T17:54:00.397Z,15.70
2018-12-08T17:56:28.896Z,13.73
2018-12-08T17:58:57.558Z,14.50
2018-12-08T18:01:26.185Z,14.53
2018-12-08T18:03:54.819Z,14.93
2018-12-08T18:06:23.624Z,17.10
2018-12-08T18:08:52.155Z,16.77
2018-12-08T18:11:20.693Z,17.63
2018-12-08T18:13:49.263Z,18.07
2018-12-08T18:16:17.950Z,19.67
2018-12-08T18:18:46.585Z,20.57
2018-12-08T18:21:15.474Z,24.60
2018-12-08T18:23:44.068Z,24.53
2018-12-08T18:26:12.742Z,23.33
2018-12-08T18:28:41.325Z,23.33
2018-12-08T18:31:10.181Z,23.07
2018-12-08T18:33:38.917Z,23.93
2018-12-08T18:36:07.658Z,24.60
2018-12-08T18:38:36.463Z,23.50
2018-12-08T18:41:05.391Z,23.10
2018-12-08T18:43:34.206Z,23.07
2018-12-08T18:46:03.129Z,26.83
2018-12-08T18:48:32.066Z,26.53
2018-12-08T18:51:00.914Z,28.87
2018-12-08T18:53:29.567Z,29.20
2018-12-08T18:55:58.268Z,28.90
2018-12-08T18:58:27.065Z,26.63
2018-12-08T19:00:55.744Z,27.23
2018-12-08T19:03:24.569Z,27.30
2018-12-08T19:05:53.152Z,26.17
2018-12-08T19:08:21.806Z,25.20
2018-12-08T19:10:50.478Z,28.43
2018-12-08T19:13:19.005Z,28.53
2018-12-08T19:15:47.526Z,29.50
2018-12-08T19:18:16.203Z,29.47
2018-12-08T19:20:44.701Z,32.47
2018-12-08T19:23:13.396Z,32.97
2018-12-08T19:25:42.216Z,33.03
2018-12-08T19:28:10.695Z,33.17
2018-12-08T19:30:39.279Z,33.63
2018-12-08T19:33:14.353Z,34.00
2018-12-08T19:35:38.723Z,35.03
2018-12-08T19:38:07.484Z,33.23
2018-12-08T19:40:36.196Z,33.97
2018-12-08T19:43:04.994Z,28.03
2018-12-08T19:45:33.707Z,26.43
2018-12-08T19:48:02.409Z,26.90
2018-12-08T19:50:31.147Z,26.30
2018-12-08T19:53:00.041Z,27.33
2018-12-08T19:55:28.676Z,24.67
2018-12-08T19:57:57.323Z,24.30
2018-12-08T20:00:26.025Z,25.03
2018-12-08T20:02:54.655Z,25.80
2018-12-08T20:05:23.379Z,26.20
2018-12-08T20:07:52.051Z,27.90
2018-12-08T20:10:20.615Z,28.43
2018-12-08T20:12:49.384Z,32.70
2018-12-08T20:15:17.938Z,29.67
2018-12-08T20:17:46.729Z,33.77
2018-12-08T20:20:15.211Z,33.57
2018-12-08T20:22:43.845Z,32.27
2018-12-08T20:25:12.561Z,31.37
2018-12-08T20:27:41.064Z,31.10
2018-12-08T20:30:09.962Z,31.77
2018-12-08T20:32:38.522Z,29.13
2018-12-08T20:35:07.394Z,28.87
2018-12-08T20:37:36.049Z,29.03
2018-12-08T20:40:05.073Z,27.00
2018-12-08T20:42:33.633Z,24.97
2018-12-08T20:45:02.378Z,26.40
2018-12-08T20:47:31.126Z,24.43
2018-12-08T20:49:59.689Z,26.23
2018-12-08T20:52:28.243Z,30.57
2018-12-08T20:54:57.086Z,28.57
2018-12-08T20:57:25.616Z,26.10
2018-12-08T20:59:54.770Z,26.67
2018-12-08T21:02:23.471Z,27.57
2018-12-08T21:04:52.052Z,32.33
2018-12-08T21:07:20.817Z,31.50
2018-12-08T21:09:49.413Z,29.17
2018-12-08T21:12:18.194Z,23.00
2018-12-08T21:14:46.893Z,23.37
2018-12-08T21:17:15.442Z,22.00
2018-12-08T21:19:44.127Z,21.43
2018-12-08T21:22:12.691Z,21.43
2018-12-08T21:24:41.238Z,22.77
2018-12-08T21:27:09.836Z,21.23
2018-12-08T21:29:38.382Z,20.57
2018-12-08T21:32:07.186Z,19.60
2018-12-08T21:34:35.819Z,17.30
2018-12-08T21:37:04.638Z,16.53
2018-12-08T21:39:33.208Z,17.77
2018-12-08T21:42:02.051Z,18.27
2018-12-08T21:44:30.680Z,18.83
2018-12-08T21:47:00.725Z,18.00
2018-12-08T21:49:29.568Z,17.73
2018-12-08T21:51:58.074Z,17.87
2018-12-08T21:54:26.532Z,18.60
2018-12-08T21:56:55.214Z,18.20
2018-12-08T21:59:23.788Z,19.10
2018-12-08T22:01:52.465Z,19.83
2018-12-08T22:04:21.330Z,20.33
2018-12-08T22:06:49.831Z,26.60
2018-12-08T22:09:18.628Z,23.67
2018-12-08T22:11:47.200Z,25.87
2018-12-08T22:14:15.702Z,27.07
2018-12-08T22:16:44.514Z,25.97
2018-12-08T22:19:13.217Z,26.00
2018-12-08T22:21:41.759Z,25.50
2018-12-08T22:24:10.485Z,23.43
2018-12-08T22:26:39.317Z,20.73
2018-12-08T22:29:07.895Z,20.67
2018-12-08T22:31:36.480Z,19.93
2018-12-08T22:34:05.191Z,16.63
2018-12-08T22:36:33.970Z,17.43
2018-12-08T22:39:02.647Z,16.37
2018-12-08T22:41:31.468Z,15.33
2018-12-08T22:44:00.191Z,14.67
2018-12-08T22:46:28.947Z,14.67
2018-12-08T22:48:57.673Z,13.67
2018-12-08T22:51:26.140Z,14.37
2018-12-08T22:53:54.986Z,14.50
2018-12-08T22:56:23.947Z,15.80
2018-12-08T22:58:52.565Z,15.73
2018-12-08T23:01:52.436Z,14.40
2018-12-08T23:04:21.597Z,15.23
2018-12-08T23:07:01.969Z,15.83
2018-12-08T23:09:30.766Z,15.13
2018-12-08T23:11:59.439Z,14.20
2018-12-08T23:14:29.391Z,13.70
2018-12-08T23:16:58.179Z,14.07
2018-12-08T23:19:26.944Z,13.43
2018-12-08T23:21:55.575Z,12.87
2018-12-08T23:24:24.311Z,13.33
2018-12-08T23:26:53.252Z,12.27
2018-12-08T23:29:22.236Z,11.70
2018-12-08T23:31:50.841Z,12.37
2018-12-08T23:34:19.650Z,11.97
2018-12-08T23:36:48.443Z,12.80
2018-12-08T23:39:17.011Z,11.53
2018-12-08T23:41:45.591Z,11.43
2018-12-08T23:44:14.367Z,11.43
2018-12-08T23:46:43.078Z,12.00
2018-12-08T23:49:12.036Z,12.17
2018-12-08T23:51:40.630Z,10.83
2018-12-08T23:54:09.257Z,10.67
2018-12-08T23:56:37.843Z,10.40
2018-12-08T23:59:06.418Z,9.97
